sensor_id;sensor_type;location;lat;lon;timestamp;pressure;altitude;pressure_sealevel;temperature;humidity
45941;BME280;31858;46.008;8.978;2023-05-20T00:09:18;94788.34;;;10.53;100.00
45941;BME280;31858;46.008;8.978;2023-05-20T00:19:21;94783.78;;;10.53;100.00
45941;BME280;31858;46.008;8.978;2023-05-20T00:29:23;94772.28;;;10.45;100.00
45941;BME280;31858;46.008;8.978;2023-05-20T00:39:26;94778.00;;;10.48;100.00
45941;BME280;31858;46.008;8.978;2023-05-20T00:49:29;94781.44;;;10.48;100.00
45941;BME280;31858;46.008;8.978;2023-05-20T00:59:32;94769.16;;;10.36;100.00
45941;BME280;31858;46.008;8.978;2023-05-20T01:09:34;94755.34;;;10.27;100.00
45941;BME280;31858;46.008;8.978;2023-05-20T01:19:40;94772.13;;;10.31;100.00
45941;BME280;31858;46.008;8.978;2023-05-20T01:29:44;94755.28;;;10.20;100.00
45941;BME280;31858;46.008;8.978;2023-05-20T01:39:49;94750.34;;;10.22;100.00
45941;BME280;31858;46.008;8.978;2023-05-20T01:49:52;94762.50;;;10.20;100.00
45941;BME280;31858;46.008;8.978;2023-05-20T01:59:53;94750.28;;;10.19;100.00
45941;BME280;31858;46.008;8.978;2023-05-20T02:09:57;94726.75;;;10.21;100.00
45941;BME280;31858;46.008;8.978;2023-05-20T02:19:58;94691.63;;;10.11;100.00
45941;BME280;31858;46.008;8.978;2023-05-20T02:30:01;94675.94;;;10.03;100.00
45941;BME280;31858;46.008;8.978;2023-05-20T02:40:03;94670.28;;;10.08;100.00
45941;BME280;31858;46.008;8.978;2023-05-20T02:50:07;94650.88;;;10.07;100.00
45941;BME280;31858;46.008;8.978;2023-05-20T03:00:11;94657.69;;;10.05;100.00
45941;BME280;31858;46.008;8.978;2023-05-20T03:10:15;94657.22;;;9.96;100.00
45941;BME280;31858;46.008;8.978;2023-05-20T03:20:16;94643.53;;;9.97;100.00
45941;BME280;31858;46.008;8.978;2023-05-20T03:30:19;94637.50;;;10.00;100.00
45941;BME280;31858;46.008;8.978;2023-05-20T03:40:21;94635.06;;;9.88;100.00
45941;BME280;31858;46.008;8.978;2023-05-20T03:50:24;94628.69;;;9.96;100.00
45941;BME280;31858;46.008;8.978;2023-05-20T04:00:26;94632.13;;;9.97;100.00
45941;BME280;31858;46.008;8.978;2023-05-20T04:10:31;94607.84;;;10.02;100.00
45941;BME280;31858;46.008;8.978;2023-05-20T04:20:34;94621.09;;;9.95;100.00
45941;BME280;31858;46.008;8.978;2023-05-20T04:30:37;94630.94;;;9.91;100.00
45941;BME280;31858;46.008;8.978;2023-05-20T04:40:38;94619.56;;;9.94;100.00
45941;BME280;31858;46.008;8.978;2023-05-20T04:50:41;94624.16;;;9.97;100.00
45941;BME280;31858;46.008;8.978;2023-05-20T05:00:43;94631.03;;;10.01;100.00
45941;BME280;31858;46.008;8.978;2023-05-20T05:10:46;94630.28;;;10.01;100.00
45941;BME280;31858;46.008;8.978;2023-05-20T05:20:48;94626.47;;;10.02;100.00
45941;BME280;31858;46.008;8.978;2023-05-20T05:30:53;94612.03;;;10.03;100.00
45941;BME280;31858;46.008;8.978;2023-05-20T05:40:55;94593.25;;;10.22;100.00
45941;BME280;31858;46.008;8.978;2023-05-20T05:50:58;94574.72;;;10.36;100.00
45941;BME280;31858;46.008;8.978;2023-05-20T06:00:59;94584.19;;;10.30;100.00
45941;BME280;31858;46.008;8.978;2023-05-20T06:11:02;94577.72;;;10.31;100.00
45941;BME280;31858;46.008;8.978;2023-05-20T06:21:04;94580.03;;;10.36;100.00
45941;BME280;31858;46.008;8.978;2023-05-20T06:31:07;94569.03;;;10.41;100.00
45941;BME280;31858;46.008;8.978;2023-05-20T06:41:09;94580.91;;;10.51;100.00
45941;BME280;31858;46.008;8.978;2023-05-20T06:51:12;94575.34;;;10.74;100.00
45941;BME280;31858;46.008;8.978;2023-05-20T07:01:15;94585.53;;;10.61;100.00
45941;BME280;31858;46.008;8.978;2023-05-20T07:11:18;94603.44;;;10.61;100.00
45941;BME280;31858;46.008;8.978;2023-05-20T07:21:20;94595.09;;;10.66;100.00
45941;BME280;31858;46.008;8.978;2023-05-20T07:31:23;94551.03;;;10.79;100.00
45941;BME280;31858;46.008;8.978;2023-05-20T07:41:26;94552.06;;;10.64;100.00
45941;BME280;31858;46.008;8.978;2023-05-20T07:51:29;94556.66;;;10.67;100.00
45941;BME280;31858;46.008;8.978;2023-05-20T08:01:31;94566.22;;;10.75;100.00
45941;BME280;31858;46.008;8.978;2023-05-20T08:11:35;94560.19;;;10.82;100.00
45941;BME280;31858;46.008;8.978;2023-05-20T08:21:37;94567.84;;;10.90;100.00
45941;BME280;31858;46.008;8.978;2023-05-20T08:31:40;94566.31;;;10.89;100.00
45941;BME280;31858;46.008;8.978;2023-05-20T08:41:41;94570.94;;;10.96;100.00
45941;BME280;31858;46.008;8.978;2023-05-20T08:51:44;94573.22;;;10.97;100.00
45941;BME280;31858;46.008;8.978;2023-05-20T09:01:47;94577.47;;;11.05;100.00
45941;BME280;31858;46.008;8.978;2023-05-20T09:11:50;94578.63;;;11.11;100.00
45941;BME280;31858;46.008;8.978;2023-05-20T09:21:52;94592.78;;;11.23;100.00
45941;BME280;31858;46.008;8.978;2023-05-20T09:31:56;94600.06;;;11.26;100.00
45941;BME280;31858;46.008;8.978;2023-05-20T09:42:01;94606.91;;;11.27;100.00
45941;BME280;31858;46.008;8.978;2023-05-20T09:52:07;94598.16;;;11.30;100.00
45941;BME280;31858;46.008;8.978;2023-05-20T10:02:10;94610.41;;;11.38;100.00
45941;BME280;31858;46.008;8.978;2023-05-20T10:12:21;94624.91;;;11.44;100.00
45941;BME280;31858;46.008;8.978;2023-05-20T10:22:27;94616.88;;;11.37;100.00
45941;BME280;31858;46.008;8.978;2023-05-20T10:32:31;94582.25;;;11.51;100.00
45941;BME280;31858;46.008;8.978;2023-05-20T10:42:33;94583.06;;;11.66;100.00
45941;BME280;31858;46.008;8.978;2023-05-20T10:52:36;94597.94;;;11.74;100.00
45941;BME280;31858;46.008;8.978;2023-05-20T11:02:38;94601.03;;;11.80;100.00
45941;BME280;31858;46.008;8.978;2023-05-20T11:12:42;94591.91;;;11.81;100.00
45941;BME280;31858;46.008;8.978;2023-05-20T11:22:44;94582.75;;;11.89;100.00
45941;BME280;31858;46.008;8.978;2023-05-20T11:32:57;94582.03;;;11.99;100.00
45941;BME280;31858;46.008;8.978;2023-05-20T11:43:00;94575.56;;;12.07;100.00
45941;BME280;31858;46.008;8.978;2023-05-20T11:53:04;94576.72;;;12.20;100.00
45941;BME280;31858;46.008;8.978;2023-05-20T12:03:06;94579.00;;;12.22;100.00
45941;BME280;31858;46.008;8.978;2023-05-20T12:13:09;94583.59;;;12.14;100.00
45941;BME280;31858;46.008;8.978;2023-05-20T12:23:12;94576.69;;;12.06;100.00
45941;BME280;31858;46.008;8.978;2023-05-20T12:33:15;94592.69;;;11.92;100.00
45941;BME280;31858;46.008;8.978;2023-05-20T12:43:17;94583.13;;;11.80;100.00
45941;BME280;31858;46.008;8.978;2023-05-20T12:53:20;94599.53;;;11.82;100.00
45941;BME280;31858;46.008;8.978;2023-05-20T13:03:21;94618.53;;;11.73;100.00
45941;BME280;31858;46.008;8.978;2023-05-20T13:13:24;94596.03;;;11.64;100.00
45941;BME280;31858;46.008;8.978;2023-05-20T13:23:26;94612.50;;;11.84;100.00
45941;BME280;31858;46.008;8.978;2023-05-20T13:33:29;94610.63;;;11.95;100.00
45941;BME280;31858;46.008;8.978;2023-05-20T13:43:30;94612.56;;;12.01;100.00
45941;BME280;31858;46.008;8.978;2023-05-20T13:53:34;94605.31;;;12.09;100.00
45941;BME280;31858;46.008;8.978;2023-05-20T14:03:35;94611.06;;;12.11;100.00
45941;BME280;31858;46.008;8.978;2023-05-20T14:13:40;94611.81;;;12.08;100.00
45941;BME280;31858;46.008;8.978;2023-05-20T14:23:42;94583.97;;;12.16;100.00
45941;BME280;31858;46.008;8.978;2023-05-20T14:33:45;94613.34;;;12.16;100.00
45941;BME280;31858;46.008;8.978;2023-05-20T14:43:47;94605.34;;;12.13;100.00
45941;BME280;31858;46.008;8.978;2023-05-20T14:53:50;94601.53;;;12.21;100.00
45941;BME280;31858;46.008;8.978;2023-05-20T15:03:51;94601.16;;;12.22;100.00
45941;BME280;31858;46.008;8.978;2023-05-20T15:13:54;94606.50;;;12.22;100.00
45941;BME280;31858;46.008;8.978;2023-05-20T15:23:56;94619.47;;;12.20;100.00
45941;BME280;31858;46.008;8.978;2023-05-20T15:33:59;94609.91;;;12.19;100.00
45941;BME280;31858;46.008;8.978;2023-05-20T15:44:01;94619.47;;;12.20;100.00
45941;BME280;31858;46.008;8.978;2023-05-20T15:54:04;94619.84;;;12.15;100.00
45941;BME280;31858;46.008;8.978;2023-05-20T16:04:05;94612.56;;;12.12;100.00
45941;BME280;31858;46.008;8.978;2023-05-20T16:14:08;94608.78;;;12.17;100.00
45941;BME280;31858;46.008;8.978;2023-05-20T16:24:10;94590.81;;;12.03;100.00
45941;BME280;31858;46.008;8.978;2023-05-20T16:34:13;94596.91;;;12.03;100.00
45941;BME280;31858;46.008;8.978;2023-05-20T16:44:14;94598.84;;;12.10;100.00
45941;BME280;31858;46.008;8.978;2023-05-20T16:54:17;94611.44;;;12.13;100.00
45941;BME280;31858;46.008;8.978;2023-05-20T17:04:20;94606.09;;;12.13;100.00
45941;BME280;31858;46.008;8.978;2023-05-20T17:14:23;94616.00;;;12.09;100.00
45941;BME280;31858;46.008;8.978;2023-05-20T17:24:25;94631.25;;;12.01;100.00
45941;BME280;31858;46.008;8.978;2023-05-20T17:34:28;94625.13;;;11.97;100.00
45941;BME280;31858;46.008;8.978;2023-05-20T17:44:30;94630.09;;;11.99;100.00
45941;BME280;31858;46.008;8.978;2023-05-20T17:54:32;94635.44;;;11.99;100.00
45941;BME280;31858;46.008;8.978;2023-05-20T18:04:34;94644.19;;;11.92;100.00
45941;BME280;31858;46.008;8.978;2023-05-20T18:14:37;94638.44;;;11.87;100.00
45941;BME280;31858;46.008;8.978;2023-05-20T18:24:39;94646.06;;;11.81;100.00
45941;BME280;31858;46.008;8.978;2023-05-20T18:34:42;94629.97;;;11.70;100.00
45941;BME280;31858;46.008;8.978;2023-05-20T18:44:44;94624.63;;;11.70;100.00
45941;BME280;31858;46.008;8.978;2023-05-20T18:54:47;94616.22;;;11.58;100.00
45941;BME280;31858;46.008;8.978;2023-05-20T19:04:48;94615.44;;;11.57;100.00
45941;BME280;31858;46.008;8.978;2023-05-20T19:14:51;94633.75;;;11.55;100.00
45941;BME280;31858;46.008;8.978;2023-05-20T19:24:53;94650.50;;;11.52;100.00
45941;BME280;31858;46.008;8.978;2023-05-20T19:34:56;94652.03;;;11.53;100.00
45941;BME280;31858;46.008;8.978;2023-05-20T19:44:57;94648.59;;;11.53;100.00
45941;BME280;31858;46.008;8.978;2023-05-20T19:55:01;94636.34;;;11.44;100.00
45941;BME280;31858;46.008;8.978;2023-05-20T20:05:03;94640.91;;;11.40;100.00
45941;BME280;31858;46.008;8.978;2023-05-20T20:15:08;94644.28;;;11.34;100.00
45941;BME280;31858;46.008;8.978;2023-05-20T20:25:10;94645.41;;;11.26;100.00
45941;BME280;31858;46.008;8.978;2023-05-20T20:35:15;94642.72;;;11.26;100.00
45941;BME280;31858;46.008;8.978;2023-05-20T20:45:17;94635.88;;;11.25;100.00
45941;BME280;31858;46.008;8.978;2023-05-20T20:55:23;94639.66;;;11.20;100.00
45941;BME280;31858;46.008;8.978;2023-05-20T21:05:24;94626.03;;;11.39;100.00
45941;BME280;31858;46.008;8.978;2023-05-20T21:15:29;94617.63;;;11.34;100.00
45941;BME280;31858;46.008;8.978;2023-05-20T21:25:31;94622.13;;;11.23;100.00
45941;BME280;31858;46.008;8.978;2023-05-20T21:35:34;94613.78;;;11.28;100.00
45941;BME280;31858;46.008;8.978;2023-05-20T21:45:35;94620.59;;;11.22;100.00
45941;BME280;31858;46.008;8.978;2023-05-20T21:55:38;94622.56;;;11.32;100.00
45941;BME280;31858;46.008;8.978;2023-05-20T22:05:40;94625.22;;;11.32;100.00
45941;BME280;31858;46.008;8.978;2023-05-20T22:15:46;94622.16;;;11.30;100.00
45941;BME280;31858;46.008;8.978;2023-05-20T22:25:47;94613.34;;;11.19;100.00
45941;BME280;31858;46.008;8.978;2023-05-20T22:35:50;94622.09;;;11.16;100.00
45941;BME280;31858;46.008;8.978;2023-05-20T22:45:52;94617.47;;;11.09;100.00
45941;BME280;31858;46.008;8.978;2023-05-20T22:55:55;94602.66;;;11.15;100.00
45941;BME280;31858;46.008;8.978;2023-05-20T23:05:59;94588.25;;;11.27;100.00
45941;BME280;31858;46.008;8.978;2023-05-20T23:16:02;94593.94;;;11.22;100.00
45941;BME280;31858;46.008;8.978;2023-05-20T23:26:05;94580.53;;;11.07;100.00
45941;BME280;31858;46.008;8.978;2023-05-20T23:36:08;94591.19;;;11.07;100.00
45941;BME280;31858;46.008;8.978;2023-05-20T23:46:09;94584.66;;;11.01;100.00
45941;BME280;31858;46.008;8.978;2023-05-20T23:56:12;94605.16;;;10.90;100.00
